Погода Параунана 2 недели

Гояс, Бразилия

24 июля-05 августа
  • 24июля
    Сегодня
    +15°
    +32°
    Ясно и безоблачно
    ВремяПогодаТемператураВлажностьДавлениеВетер, м/сВероятность осадков
    00:00Ясно и безоблачно+20°C39 %702 мм2.7 м/с5 %
    03:00Ясно и безоблачно+17°C44 %702 мм2.5 м/с5 %
    06:00Практически безоблачно+16°C48 %702 мм2.6 м/с5 %
    09:00Ясно и безоблачно+21°C37 %704 мм2.6 м/с5 %
    12:00Ясно и безоблачно+29°C21 %705 мм3.4 м/с5 %
    15:00Ясно и безоблачно+31°C19 %703 мм1.6 м/с5 %
    18:00Ясно и безоблачно+29°C24 %703 мм0.7 м/с5 %
    21:00Ясно и безоблачно+24°C30 %703 мм1.0 м/с5 %
  • 25июля
    Четверг
    +15°
    +31°
    Ясно и безоблачно
    ВремяПогодаТемператураВлажностьДавлениеВетер, м/сВероятность осадков
    00:00Ясно и безоблачно+22°C31 %703 мм1.2 м/с5 %
    03:00Ясно и безоблачно+17°C43 %701 мм2.5 м/с5 %
    06:00Ясно и безоблачно+16°C50 %701 мм2.3 м/с5 %
    09:00Ясно и безоблачно+21°C38 %704 мм1.2 м/с5 %
    12:00Ясно и безоблачно+29°C23 %704 мм0.8 м/с5 %
    15:00Ясно и безоблачно+31°C20 %702 мм1.3 м/с5 %
    18:00Ясно и безоблачно+28°C24 %701 мм2.1 м/с5 %
    21:00Ясно и безоблачно+23°C31 %701 мм2.2 м/с5 %
  • 26июля
    Пятница
    +15°
    +32°
    Ясно и безоблачно
    ВремяПогодаТемператураВлажностьДавлениеВетер, м/сВероятность осадков
    00:00Ясно и безоблачно+20°C35 %700 мм2.3 м/с5 %
    03:00Ясно и безоблачно+17°C40 %699 мм2.5 м/с5 %
    06:00Ясно и безоблачно+16°C49 %700 мм2.5 м/с5 %
    09:00Ясно и безоблачно+21°C37 %703 мм2.3 м/с5 %
    12:00Ясно и безоблачно+29°C22 %703 мм2.3 м/с5 %
    15:00Ясно и безоблачно+31°C20 %701 мм0.9 м/с5 %
    18:00Ясно и безоблачно+30°C24 %701 мм1.4 м/с5 %
    21:00Ясно и безоблачно+23°C33 %701 мм2.1 м/с5 %
  • 27июля
    Суббота
    +17°
    +32°
    Ясно и безоблачно
    ВремяПогодаТемператураВлажностьДавлениеВетер, м/сВероятность осадков
    00:00Ясно и безоблачно+21°C35 %701 мм1.7 м/с5 %
    03:00Ясно и безоблачно+18°C39 %699 мм2.2 м/с5 %
    06:00Ясно и безоблачно+16°C45 %700 мм2.2 м/с5 %
    09:00Ясно и безоблачно+22°C32 %703 мм1.6 м/с5 %
    12:00Ясно и безоблачно+30°C21 %703 мм3.4 м/с5 %
    15:00Ясно и безоблачно+32°C19 %701 мм2.3 м/с5 %
    18:00Ясно и безоблачно+29°C26 %701 мм1.6 м/с5 %
    21:00Ясно и безоблачно+24°C34 %701 мм2.0 м/с5 %
Мы используем cookies
Соглашаюсь